< < Back
Terminal Aerodrome Forecast


Current Version              Previous Versions:   1  2  3  4  5  6  7  8  9  

Terminal Aerodrome Forecast

656
FTUS42 KMLB 070544
TAFMCO
TAF
KMCO 070544Z 0706/0806 30014KT P6SM -RA OVC006
     FM070900 31015G20KT P6SM BKN008 OVC010
     FM071500 31018G25KT P6SM BKN015
     FM071700 31020G28KT P6SM SCT025
     FM080000 30012KT P6SM SKC=

Latest METAR

818
SAUS70 KWBC 070600 RRA
MTRMCO
METAR KMCO 070553Z 31011G18KT 10SM OVC005 09/09 A3001 RMK AO2 RAE33
SLP161 P0001 60023 T00940089 10156 20094 56016 $


USA.gov is the U.S. government's official web portal to all federal, state and local government web resources and services.